BEL9HR LSGG-EBBR
Flight info
| Callsign | BEL9HR |
|---|---|
| Flight time | 0h 58m |
| Altitude | 30000 |
| Route | ARBOS DCT IXILU DCT IBERA N853 DIK Y37 BATTY |
| Aircraft | A320/M-DE3FGHIJ1LORVWY/H |
Departure
| Time | 2026-05-01 09:53 |
|---|---|
| Airport | Geneva International Airport (LSGG) |
Arrival
| Time | 2026-05-01 10:52 |
|---|---|
| Airport | Brussels Airport (EBBR) |
| Time | Latitude | Longitude | Altitude | Speed | Heading |
|---|---|---|---|---|---|
| 2026-05-01 09:04 | 46.22980 | 6.10493 | 1393 ft | 0 kts | 135° |
| 2026-05-01 09:06 | 46.22980 | 6.10492 | 1393 ft | 0 kts | 135° |
| 2026-05-01 09:45 | 46.22993 | 6.10475 | 1400 ft | 4 kts | 148° |
| 2026-05-01 09:45 | 46.23040 | 6.10474 | 1401 ft | 3 kts | 224° |
| 2026-05-01 09:45 | 46.23041 | 6.10476 | 1402 ft | 0 kts | 225° |
| 2026-05-01 09:48 | 46.23028 | 6.10456 | 1397 ft | 7 kts | 225° |
| 2026-05-01 09:48 | 46.23000 | 6.10414 | 1395 ft | 5 kts | 225° |
| 2026-05-01 09:48 | 46.22963 | 6.10360 | 1393 ft | 11 kts | 231° |
| 2026-05-01 09:49 | 46.22976 | 6.10274 | 1404 ft | 9 kts | 311° |
| 2026-05-01 09:49 | 46.23015 | 6.10215 | 1395 ft | 7 kts | 314° |
| 2026-05-01 09:49 | 46.23047 | 6.10169 | 1399 ft | 7 kts | 315° |
| 2026-05-01 09:49 | 46.23039 | 6.10103 | 1394 ft | 9 kts | 229° |
| 2026-05-01 09:50 | 46.22983 | 6.10020 | 1400 ft | 14 kts | 226° |
| 2026-05-01 09:50 | 46.22908 | 6.09909 | 1399 ft | 16 kts | 225° |
| 2026-05-01 09:50 | 46.22827 | 6.09792 | 1398 ft | 17 kts | 225° |
| 2026-05-01 09:50 | 46.22742 | 6.09667 | 1401 ft | 18 kts | 225° |
| 2026-05-01 09:51 | 46.22649 | 6.09534 | 1400 ft | 20 kts | 224° |
| 2026-05-01 09:51 | 46.22563 | 6.09378 | 1403 ft | 19 kts | 249° |
| 2026-05-01 09:51 | 46.22552 | 6.09228 | 1410 ft | 10 kts | 279° |
| 2026-05-01 09:51 | 46.22574 | 6.09173 | 1420 ft | 3 kts | 316° |
| 2026-05-01 09:52 | 46.22588 | 6.09162 | 1415 ft | 5 kts | 338° |
| 2026-05-01 09:52 | 46.22632 | 6.09175 | 1416 ft | 6 kts | 39° |
| 2026-05-01 09:52 | 46.22642 | 6.09189 | 1416 ft | 0 kts | 44° |
| 2026-05-01 09:52 | 46.22643 | 6.09190 | 1416 ft | 2 kts | 44° |
| 2026-05-01 09:53 | 46.22754 | 6.09352 | 1417 ft | 58 kts | 45° |
| 2026-05-01 09:53 | 46.23203 | 6.10012 | 1407 ft | 124 kts | 45° |
| 2026-05-01 09:53 | 46.23947 | 6.11105 | 1424 ft | 171 kts | 46° |
| 2026-05-01 09:53 | 46.24771 | 6.12343 | 2124 ft | 171 kts | 47° |
| 2026-05-01 09:54 | 46.25601 | 6.13578 | 2902 ft | 172 kts | 46° |
| 2026-05-01 09:54 | 46.26427 | 6.14785 | 3620 ft | 170 kts | 45° |
| 2026-05-01 09:54 | 46.27262 | 6.15993 | 4292 ft | 170 kts | 45° |
| 2026-05-01 09:54 | 46.28102 | 6.17211 | 4876 ft | 176 kts | 45° |
| 2026-05-01 09:55 | 46.28998 | 6.18539 | 5248 ft | 193 kts | 46° |
| 2026-05-01 09:55 | 46.29985 | 6.19994 | 5576 ft | 212 kts | 45° |
| 2026-05-01 09:55 | 46.31084 | 6.21601 | 5874 ft | 238 kts | 45° |
| 2026-05-01 09:55 | 46.32312 | 6.23391 | 6299 ft | 262 kts | 45° |
| 2026-05-01 09:56 | 46.33619 | 6.25307 | 7019 ft | 272 kts | 46° |
| 2026-05-01 09:56 | 46.34963 | 6.27276 | 7851 ft | 277 kts | 45° |
| 2026-05-01 09:56 | 46.36538 | 6.28884 | 8696 ft | 283 kts | 21° |
| 2026-05-01 09:56 | 46.38492 | 6.29296 | 9526 ft | 289 kts | 358° |
| 2026-05-01 09:57 | 46.40515 | 6.29180 | 10358 ft | 294 kts | 359° |
| 2026-05-01 09:57 | 46.42613 | 6.29083 | 10823 ft | 312 kts | 359° |
| 2026-05-01 09:57 | 46.44863 | 6.29003 | 11132 ft | 334 kts | 360° |
| 2026-05-01 09:57 | 46.47228 | 6.28952 | 11746 ft | 344 kts | 0° |
| 2026-05-01 09:58 | 46.49641 | 6.28912 | 12485 ft | 349 kts | 0° |
| 2026-05-01 09:58 | 46.52083 | 6.28873 | 13254 ft | 353 kts | 0° |
| 2026-05-01 09:58 | 46.54558 | 6.28829 | 13993 ft | 358 kts | 0° |
| 2026-05-01 09:58 | 46.57062 | 6.28777 | 14652 ft | 362 kts | 0° |
| 2026-05-01 09:59 | 46.59605 | 6.28720 | 15134 ft | 373 kts | 0° |
| 2026-05-01 09:59 | 46.62250 | 6.28660 | 15482 ft | 385 kts | 0° |
| 2026-05-01 09:59 | 46.64950 | 6.28470 | 16022 ft | 392 kts | 353° |
| 2026-05-01 09:59 | 46.67623 | 6.27540 | 16644 ft | 398 kts | 341° |
| 2026-05-01 10:00 | 46.70142 | 6.25830 | 17250 ft | 403 kts | 332° |
| 2026-05-01 10:00 | 46.72601 | 6.23816 | 17833 ft | 407 kts | 332° |
| 2026-05-01 10:00 | 46.75079 | 6.21789 | 18412 ft | 411 kts | 332° |
| 2026-05-01 10:00 | 46.77586 | 6.19741 | 18938 ft | 415 kts | 332° |
| 2026-05-01 10:01 | 46.80112 | 6.17679 | 19443 ft | 418 kts | 332° |
| 2026-05-01 10:01 | 46.82658 | 6.15601 | 19969 ft | 420 kts | 332° |
| 2026-05-01 10:01 | 46.85217 | 6.13508 | 20494 ft | 423 kts | 332° |
| 2026-05-01 10:01 | 46.87789 | 6.11399 | 20986 ft | 426 kts | 332° |
| 2026-05-01 10:02 | 46.90389 | 6.09260 | 21426 ft | 431 kts | 332° |
| 2026-05-01 10:02 | 46.93006 | 6.07104 | 21905 ft | 434 kts | 332° |
| 2026-05-01 10:02 | 46.95667 | 6.04997 | 22367 ft | 436 kts | 336° |
| 2026-05-01 10:02 | 46.98520 | 6.03497 | 22829 ft | 437 kts | 347° |
| 2026-05-01 10:03 | 47.01518 | 6.02774 | 23288 ft | 437 kts | 358° |
| 2026-05-01 10:03 | 47.04563 | 6.02745 | 23751 ft | 438 kts | 3° |
| 2026-05-01 10:03 | 47.07619 | 6.02815 | 24158 ft | 441 kts | 3° |
| 2026-05-01 10:03 | 47.10694 | 6.02884 | 24541 ft | 443 kts | 2° |
| 2026-05-01 10:04 | 47.13783 | 6.02945 | 24927 ft | 445 kts | 2° |
| 2026-05-01 10:04 | 47.16892 | 6.03003 | 25292 ft | 448 kts | 2° |
| 2026-05-01 10:04 | 47.20013 | 6.03060 | 25658 ft | 450 kts | 2° |
| 2026-05-01 10:04 | 47.23146 | 6.03120 | 26033 ft | 452 kts | 2° |
| 2026-05-01 10:05 | 47.26298 | 6.03183 | 26410 ft | 454 kts | 2° |
| 2026-05-01 10:05 | 47.29464 | 6.03246 | 26774 ft | 456 kts | 2° |
| 2026-05-01 10:05 | 47.32643 | 6.03311 | 27120 ft | 458 kts | 2° |
| 2026-05-01 10:05 | 47.35834 | 6.03378 | 27454 ft | 460 kts | 2° |
| 2026-05-01 10:06 | 47.38998 | 6.03442 | 27780 ft | 462 kts | 2° |
| 2026-05-01 10:06 | 47.42217 | 6.03506 | 28105 ft | 464 kts | 2° |
| 2026-05-01 10:06 | 47.45455 | 6.03570 | 28429 ft | 466 kts | 2° |
| 2026-05-01 10:06 | 47.48702 | 6.03634 | 28776 ft | 467 kts | 2° |
| 2026-05-01 10:07 | 47.51955 | 6.03698 | 29091 ft | 469 kts | 2° |
| 2026-05-01 10:07 | 47.55225 | 6.03766 | 29383 ft | 471 kts | 2° |
| 2026-05-01 10:07 | 47.58506 | 6.03836 | 29673 ft | 472 kts | 2° |
| 2026-05-01 10:07 | 47.61798 | 6.03905 | 29952 ft | 474 kts | 2° |
| 2026-05-01 10:08 | 47.68414 | 6.04040 | 30293 ft | 474 kts | 2° |
| 2026-05-01 10:08 | 47.71693 | 6.04101 | 30295 ft | 469 kts | 2° |
| 2026-05-01 10:09 | 47.78194 | 6.04430 | 30296 ft | 467 kts | 5° |
| 2026-05-01 10:09 | 47.84658 | 6.05305 | 30292 ft | 466 kts | 7° |
| 2026-05-01 10:10 | 47.91111 | 6.06307 | 30293 ft | 466 kts | 7° |
| 2026-05-01 10:10 | 48.00807 | 6.07602 | 30293 ft | 466 kts | 6° |
| 2026-05-01 10:11 | 48.07270 | 6.08402 | 30293 ft | 466 kts | 6° |
| 2026-05-01 10:11 | 48.13722 | 6.09227 | 30297 ft | 465 kts | 6° |
| 2026-05-01 10:12 | 48.20119 | 6.10060 | 30299 ft | 464 kts | 6° |
| 2026-05-01 10:13 | 48.29815 | 6.11324 | 30291 ft | 464 kts | 6° |
| 2026-05-01 10:13 | 48.36192 | 6.12162 | 30299 ft | 463 kts | 6° |
| 2026-05-01 10:14 | 48.45817 | 6.13418 | 30299 ft | 463 kts | 6° |
| 2026-05-01 10:14 | 48.52240 | 6.14257 | 30300 ft | 462 kts | 6° |
| 2026-05-01 10:15 | 48.58650 | 6.15103 | 30298 ft | 462 kts | 6° |
| 2026-05-01 10:15 | 48.65062 | 6.15957 | 30294 ft | 462 kts | 6° |
| 2026-05-01 10:16 | 48.71464 | 6.16812 | 30293 ft | 462 kts | 6° |
| 2026-05-01 10:17 | 48.81057 | 6.18082 | 30291 ft | 462 kts | 6° |
| 2026-05-01 10:17 | 48.90658 | 6.19355 | 30315 ft | 461 kts | 6° |
| 2026-05-01 10:18 | 49.00251 | 6.20629 | 30314 ft | 461 kts | 7° |
| 2026-05-01 10:19 | 49.06645 | 6.21488 | 30317 ft | 461 kts | 6° |
| 2026-05-01 10:19 | 49.13034 | 6.22352 | 30312 ft | 461 kts | 6° |
| 2026-05-01 10:20 | 49.22606 | 6.23648 | 30315 ft | 460 kts | 6° |
| 2026-05-01 10:20 | 49.28980 | 6.24508 | 30320 ft | 459 kts | 6° |
| 2026-05-01 10:21 | 49.38510 | 6.25801 | 30318 ft | 458 kts | 6° |
| 2026-05-01 10:22 | 49.48008 | 6.27104 | 30322 ft | 456 kts | 5° |
| 2026-05-01 10:22 | 49.54322 | 6.26093 | 30305 ft | 461 kts | 346° |
| 2026-05-01 10:23 | 49.57427 | 6.24803 | 30297 ft | 462 kts | 347° |
| 2026-05-01 10:23 | 49.66721 | 6.20977 | 30310 ft | 463 kts | 346° |
| 2026-05-01 10:24 | 49.79169 | 6.15854 | 30312 ft | 463 kts | 346° |
| 2026-05-01 10:25 | 49.91641 | 6.10869 | 29915 ft | 460 kts | 348° |
| 2026-05-01 10:26 | 49.94763 | 6.09794 | 29627 ft | 458 kts | 349° |
| 2026-05-01 10:26 | 49.97873 | 6.08756 | 29347 ft | 457 kts | 349° |
| 2026-05-01 10:26 | 50.04062 | 6.06672 | 28792 ft | 453 kts | 349° |
| 2026-05-01 10:27 | 50.10183 | 6.04532 | 27895 ft | 447 kts | 349° |
| 2026-05-01 10:27 | 50.16200 | 6.02373 | 26777 ft | 440 kts | 348° |
| 2026-05-01 10:28 | 50.19176 | 6.01297 | 26233 ft | 437 kts | 348° |
| 2026-05-01 10:28 | 50.25069 | 5.99186 | 25191 ft | 431 kts | 348° |
| 2026-05-01 10:28 | 50.27984 | 5.98149 | 24674 ft | 429 kts | 348° |
| 2026-05-01 10:29 | 50.33782 | 5.96091 | 23599 ft | 425 kts | 348° |
| 2026-05-01 10:29 | 50.36652 | 5.95068 | 23058 ft | 422 kts | 348° |
| 2026-05-01 10:30 | 50.42370 | 5.93020 | 22006 ft | 421 kts | 348° |
| 2026-05-01 10:30 | 50.48048 | 5.90974 | 20922 ft | 417 kts | 348° |
| 2026-05-01 10:31 | 50.53542 | 5.88425 | 19644 ft | 417 kts | 332° |
| 2026-05-01 10:31 | 50.57638 | 5.82118 | 18523 ft | 415 kts | 304° |
| 2026-05-01 10:32 | 50.60928 | 5.74700 | 17426 ft | 411 kts | 304° |
| 2026-05-01 10:32 | 50.62554 | 5.71016 | 16908 ft | 409 kts | 304° |
| 2026-05-01 10:32 | 50.65776 | 5.63699 | 15889 ft | 404 kts | 304° |
| 2026-05-01 10:33 | 50.68962 | 5.56456 | 14885 ft | 399 kts | 303° |
| 2026-05-01 10:33 | 50.72099 | 5.49310 | 13804 ft | 394 kts | 303° |
| 2026-05-01 10:34 | 50.73648 | 5.45762 | 13175 ft | 390 kts | 303° |
| 2026-05-01 10:34 | 50.75177 | 5.42253 | 12276 ft | 386 kts | 303° |
| 2026-05-01 10:34 | 50.76690 | 5.38778 | 11399 ft | 382 kts | 303° |
| 2026-05-01 10:35 | 50.79577 | 5.32147 | 10722 ft | 347 kts | 303° |
| 2026-05-01 10:35 | 50.80912 | 5.29085 | 10483 ft | 330 kts | 303° |
| 2026-05-01 10:35 | 50.82187 | 5.26157 | 10244 ft | 319 kts | 303° |
| 2026-05-01 10:35 | 50.83427 | 5.23293 | 9990 ft | 313 kts | 303° |
| 2026-05-01 10:36 | 50.85866 | 5.17632 | 9472 ft | 309 kts | 303° |
| 2026-05-01 10:36 | 50.86991 | 5.14753 | 9302 ft | 306 kts | 292° |
| 2026-05-01 10:36 | 50.87669 | 5.11591 | 9289 ft | 302 kts | 278° |
| 2026-05-01 10:37 | 50.87900 | 5.08311 | 9296 ft | 299 kts | 270° |
| 2026-05-01 10:37 | 50.88188 | 5.01778 | 9293 ft | 300 kts | 270° |
| 2026-05-01 10:37 | 50.88336 | 4.98488 | 9293 ft | 300 kts | 270° |
| 2026-05-01 10:38 | 50.88482 | 4.95199 | 9295 ft | 300 kts | 270° |
| 2026-05-01 10:38 | 50.88629 | 4.91908 | 9296 ft | 300 kts | 270° |
| 2026-05-01 10:38 | 50.88774 | 4.88617 | 9293 ft | 299 kts | 270° |
| 2026-05-01 10:38 | 50.88916 | 4.85327 | 9293 ft | 299 kts | 270° |
| 2026-05-01 10:39 | 50.89057 | 4.82033 | 9216 ft | 301 kts | 270° |
| 2026-05-01 10:39 | 50.89199 | 4.78741 | 8929 ft | 299 kts | 270° |
| 2026-05-01 10:39 | 50.89339 | 4.75467 | 8676 ft | 297 kts | 270° |
| 2026-05-01 10:39 | 50.89478 | 4.72203 | 8424 ft | 297 kts | 270° |
| 2026-05-01 10:40 | 50.89614 | 4.68948 | 8178 ft | 296 kts | 270° |
| 2026-05-01 10:40 | 50.89747 | 4.65716 | 7948 ft | 293 kts | 270° |
| 2026-05-01 10:40 | 50.89878 | 4.62511 | 7694 ft | 290 kts | 270° |
| 2026-05-01 10:40 | 50.90008 | 4.59325 | 7435 ft | 290 kts | 270° |
| 2026-05-01 10:41 | 50.90097 | 4.57177 | 7247 ft | 289 kts | 270° |
| 2026-05-01 10:41 | 50.90224 | 4.54054 | 7010 ft | 288 kts | 270° |
| 2026-05-01 10:41 | 50.90692 | 4.47758 | 6518 ft | 287 kts | 275° |
| 2026-05-01 10:42 | 50.90988 | 4.44636 | 6266 ft | 286 kts | 275° |
| 2026-05-01 10:42 | 50.91288 | 4.41523 | 6018 ft | 285 kts | 275° |
| 2026-05-01 10:42 | 50.91583 | 4.38426 | 5764 ft | 284 kts | 275° |
| 2026-05-01 10:42 | 50.91872 | 4.35347 | 5515 ft | 281 kts | 275° |
| 2026-05-01 10:43 | 50.92153 | 4.32283 | 5267 ft | 281 kts | 275° |
| 2026-05-01 10:43 | 50.92427 | 4.29224 | 5015 ft | 281 kts | 275° |
| 2026-05-01 10:43 | 50.92696 | 4.26176 | 4763 ft | 276 kts | 275° |
| 2026-05-01 10:43 | 50.92956 | 4.23231 | 4629 ft | 263 kts | 275° |
| 2026-05-01 10:44 | 50.93205 | 4.20423 | 4501 ft | 252 kts | 275° |
| 2026-05-01 10:44 | 50.93258 | 4.17720 | 4373 ft | 241 kts | 259° |
| 2026-05-01 10:44 | 50.92854 | 4.15182 | 4245 ft | 235 kts | 244° |
| 2026-05-01 10:44 | 50.92058 | 4.12953 | 4123 ft | 231 kts | 229° |
| 2026-05-01 10:45 | 50.90948 | 4.11162 | 4014 ft | 227 kts | 215° |
| 2026-05-01 10:45 | 50.89671 | 4.09716 | 3994 ft | 224 kts | 205° |
| 2026-05-01 10:45 | 50.88217 | 4.08900 | 3994 ft | 222 kts | 188° |
| 2026-05-01 10:45 | 50.86688 | 4.08812 | 3965 ft | 221 kts | 171° |
| 2026-05-01 10:46 | 50.85230 | 4.09427 | 3834 ft | 213 kts | 155° |
| 2026-05-01 10:46 | 50.83914 | 4.10394 | 3709 ft | 205 kts | 155° |
| 2026-05-01 10:46 | 50.82641 | 4.11331 | 3583 ft | 198 kts | 151° |
| 2026-05-01 10:46 | 50.81648 | 4.12760 | 3464 ft | 193 kts | 123° |
| 2026-05-01 10:47 | 50.81261 | 4.14756 | 3356 ft | 190 kts | 94° |
| 2026-05-01 10:47 | 50.81540 | 4.16749 | 3235 ft | 185 kts | 69° |
| 2026-05-01 10:47 | 50.82058 | 4.18534 | 3104 ft | 177 kts | 70° |
| 2026-05-01 10:47 | 50.82545 | 4.20255 | 3023 ft | 167 kts | 70° |
| 2026-05-01 10:48 | 50.83024 | 4.21905 | 3006 ft | 165 kts | 70° |
| 2026-05-01 10:48 | 50.83507 | 4.23561 | 2992 ft | 167 kts | 69° |
| 2026-05-01 10:48 | 50.83992 | 4.25238 | 2877 ft | 167 kts | 70° |
| 2026-05-01 10:48 | 50.84475 | 4.26907 | 2700 ft | 167 kts | 70° |
| 2026-05-01 10:49 | 50.84962 | 4.28566 | 2518 ft | 164 kts | 70° |
| 2026-05-01 10:49 | 50.85443 | 4.30204 | 2280 ft | 163 kts | 70° |
| 2026-05-01 10:49 | 50.85918 | 4.31822 | 2047 ft | 160 kts | 70° |
| 2026-05-01 10:49 | 50.86373 | 4.33388 | 1847 ft | 152 kts | 71° |
| 2026-05-01 10:50 | 50.86800 | 4.34863 | 1657 ft | 146 kts | 70° |
| 2026-05-01 10:50 | 50.87217 | 4.36301 | 1444 ft | 142 kts | 70° |
| 2026-05-01 10:50 | 50.87625 | 4.37720 | 1249 ft | 141 kts | 70° |
| 2026-05-01 10:50 | 50.88031 | 4.39119 | 1081 ft | 139 kts | 71° |
| 2026-05-01 10:51 | 50.88435 | 4.40509 | 916 ft | 138 kts | 70° |
| 2026-05-01 10:51 | 50.88833 | 4.41875 | 707 ft | 135 kts | 70° |
| 2026-05-01 10:51 | 50.89228 | 4.43227 | 527 ft | 135 kts | 70° |
| 2026-05-01 10:51 | 50.89616 | 4.44582 | 338 ft | 135 kts | 70° |
| 2026-05-01 10:52 | 50.90008 | 4.45939 | 174 ft | 135 kts | 70° |
| 2026-05-01 10:52 | 50.90367 | 4.47214 | 126 ft | 113 kts | 66° |
| 2026-05-01 10:52 | 50.90588 | 4.47982 | 119 ft | 44 kts | 65° |
| 2026-05-01 10:52 | 50.90658 | 4.48251 | 119 ft | 15 kts | 84° |
| 2026-05-01 10:53 | 50.90619 | 4.48400 | 117 ft | 13 kts | 120° |
| 2026-05-01 10:53 | 50.90575 | 4.48522 | 118 ft | 12 kts | 120° |
| 2026-05-01 10:53 | 50.90542 | 4.48613 | 119 ft | 8 kts | 120° |
| 2026-05-01 10:53 | 50.90523 | 4.48666 | 119 ft | 6 kts | 122° |
| 2026-05-01 10:54 | 50.90511 | 4.48682 | 117 ft | 1 kts | 148° |
| 2026-05-01 10:54 | 50.90509 | 4.48683 | 120 ft | 0 kts | 150° |
| 2026-05-01 10:54 | 50.90498 | 4.48693 | 121 ft | 5 kts | 152° |
| 2026-05-01 10:54 | 50.90466 | 4.48717 | 120 ft | 3 kts | 155° |
| 2026-05-01 10:55 | 50.90453 | 4.48727 | 120 ft | 1 kts | 155° |
| 2026-05-01 10:55 | 50.90448 | 4.48731 | 118 ft | 0 kts | 155° |
| 2026-05-01 10:55 | 50.90444 | 4.48733 | 119 ft | 1 kts | 155° |
| 2026-05-01 10:55 | 50.90443 | 4.48734 | 119 ft | 0 kts | 155° |